createdAt,value
2019-03-28T00:01:11.263Z,2.70
2019-03-28T00:03:41.735Z,5.20
2019-03-28T00:06:12.285Z,4.70
2019-03-28T00:08:42.453Z,5.17
2019-03-28T00:11:13.059Z,3.53
2019-03-28T00:13:43.280Z,3.07
2019-03-28T00:16:13.420Z,2.20
2019-03-28T00:18:43.706Z,3.80
2019-03-28T00:21:14.344Z,3.67
2019-03-28T00:23:53.613Z,2.73
2019-03-28T00:26:29.976Z,2.37
2019-03-28T00:28:55.986Z,4.10
2019-03-28T00:31:26.220Z,2.73
2019-03-28T00:33:56.433Z,4.40
2019-03-28T00:36:26.985Z,2.80
2019-03-28T00:38:57.310Z,2.93
2019-03-28T00:41:27.751Z,3.03
2019-03-28T00:43:58.317Z,3.10
2019-03-28T00:46:28.672Z,5.33
2019-03-28T00:48:58.889Z,3.37
2019-03-28T00:51:29.444Z,4.17
2019-03-28T00:53:59.669Z,3.00
2019-03-28T00:56:38.082Z,2.57
2019-03-28T00:59:01.759Z,2.47
2019-03-28T01:01:32.011Z,3.83
2019-03-28T01:04:02.626Z,2.73
2019-03-28T01:06:32.803Z,2.60
2019-03-28T01:09:04.266Z,2.73
2019-03-28T01:11:34.625Z,3.03
2019-03-28T01:14:04.898Z,2.73
2019-03-28T01:16:35.119Z,2.50
2019-03-28T01:19:05.604Z,2.63
2019-03-28T01:21:36.159Z,3.87
2019-03-28T01:24:06.311Z,4.03
2019-03-28T01:26:36.459Z,2.67
2019-03-28T01:29:06.665Z,3.53
2019-03-28T01:31:36.875Z,4.23
2019-03-28T01:34:07.177Z,3.13
2019-03-28T01:36:38.236Z,3.20
2019-03-28T01:39:08.390Z,2.60
2019-03-28T01:41:38.550Z,2.97
2019-03-28T01:44:08.842Z,3.47
2019-03-28T01:46:39.137Z,3.17
2019-03-28T01:49:09.420Z,3.43
2019-03-28T01:51:39.692Z,5.13
2019-03-28T01:54:10.013Z,3.03
2019-03-28T01:56:40.161Z,4.77
2019-03-28T01:59:10.475Z,3.47
2019-03-28T02:01:40.727Z,3.50
2019-03-28T02:04:11.005Z,2.93
2019-03-28T02:06:41.221Z,4.77
2019-03-28T02:09:11.406Z,2.67
2019-03-28T02:11:41.753Z,3.10
2019-03-28T02:14:12.407Z,2.60
2019-03-28T02:16:43.076Z,4.03
2019-03-28T02:19:13.281Z,2.67
2019-03-28T02:21:43.618Z,4.93
2019-03-28T02:24:13.913Z,2.90
2019-03-28T02:26:44.352Z,4.87
2019-03-28T02:29:14.739Z,4.60
2019-03-28T02:31:45.137Z,2.87
2019-03-28T02:34:15.436Z,2.50
2019-03-28T02:36:45.792Z,4.77
2019-03-28T02:39:16.070Z,3.30
2019-03-28T02:41:48.236Z,3.97
2019-03-28T02:44:18.559Z,2.50
2019-03-28T02:46:50.640Z,2.47
2019-03-28T02:49:21.253Z,3.37
2019-03-28T02:51:52.136Z,2.63
2019-03-28T02:54:24.170Z,2.43
2019-03-28T02:56:54.622Z,2.40
2019-03-28T02:59:25.193Z,6.40
2019-03-28T03:01:55.599Z,3.17
2019-03-28T03:04:26.067Z,3.23
2019-03-28T03:06:57.750Z,2.83
2019-03-28T03:09:27.900Z,2.40
2019-03-28T03:12:16.389Z,3.57
2019-03-28T03:14:47.616Z,2.80
2019-03-28T03:17:17.861Z,2.47
2019-03-28T03:19:50.077Z,2.60
2019-03-28T03:22:21.091Z,4.40
2019-03-28T03:24:53.055Z,3.00
2019-03-28T03:27:23.809Z,3.87
2019-03-28T03:29:54.139Z,3.27
2019-03-28T03:32:24.357Z,2.63
2019-03-28T03:34:54.494Z,3.33
2019-03-28T03:37:24.553Z,3.00
2019-03-28T03:39:56.544Z,2.60
2019-03-28T03:42:27.636Z,3.20
2019-03-28T03:44:57.922Z,4.20
2019-03-28T03:47:28.811Z,3.87
2019-03-28T03:49:58.963Z,2.87
2019-03-28T03:52:29.388Z,5.17
2019-03-28T03:55:01.571Z,4.27
2019-03-28T03:57:32.094Z,2.80
2019-03-28T04:00:03.659Z,3.23
2019-03-28T04:02:34.456Z,3.47
2019-03-28T04:05:05.035Z,4.23
2019-03-28T04:07:35.400Z,3.60
2019-03-28T04:10:06.545Z,3.50
2019-03-28T04:12:37.029Z,2.90
2019-03-28T04:15:07.409Z,2.93
2019-03-28T04:17:39.907Z,3.03
2019-03-28T04:20:12.080Z,3.27
2019-03-28T04:22:43.276Z,2.93
2019-03-28T04:25:14.886Z,2.80
2019-03-28T04:27:45.097Z,2.97
2019-03-28T04:30:15.377Z,3.13
2019-03-28T04:32:46.743Z,3.10
2019-03-28T04:35:17.117Z,2.90
2019-03-28T04:37:47.246Z,2.83
2019-03-28T04:40:17.698Z,2.90
2019-03-28T04:42:47.930Z,3.47
2019-03-28T04:45:18.249Z,2.73
2019-03-28T04:47:48.468Z,3.93
2019-03-28T04:50:18.678Z,3.13
2019-03-28T04:52:49.270Z,4.57
2019-03-28T04:55:21.749Z,3.43
2019-03-28T04:57:51.872Z,3.47
2019-03-28T05:00:22.079Z,2.90
2019-03-28T05:02:52.339Z,2.63
2019-03-28T05:05:22.405Z,2.57
2019-03-28T05:07:53.022Z,3.57
2019-03-28T05:10:24.062Z,3.03
2019-03-28T05:12:56.057Z,2.87
2019-03-28T05:15:28.569Z,4.40
2019-03-28T05:17:59.076Z,2.77
2019-03-28T05:20:29.365Z,3.70
2019-03-28T05:22:59.614Z,3.60
2019-03-28T05:25:29.940Z,2.83
2019-03-28T05:28:02.075Z,2.37
2019-03-28T05:30:32.747Z,2.60
2019-03-28T05:33:02.938Z,2.13
2019-03-28T05:35:33.287Z,2.17
2019-03-28T05:38:03.595Z,3.27
2019-03-28T05:40:34.156Z,2.40
2019-03-28T05:43:06.248Z,3.17
2019-03-28T05:45:38.624Z,2.40
2019-03-28T05:48:08.853Z,2.67
2019-03-28T05:50:39.217Z,2.70
2019-03-28T05:53:09.619Z,2.63
2019-03-28T05:55:39.852Z,1.77
2019-03-28T05:58:10.134Z,4.77
2019-03-28T06:00:40.520Z,1.87
2019-03-28T06:03:10.868Z,2.43
2019-03-28T06:05:41.238Z,2.50
2019-03-28T06:08:11.502Z,2.23
2019-03-28T06:10:43.832Z,2.00
2019-03-28T06:13:16.593Z,2.60
2019-03-28T06:15:46.858Z,3.60
2019-03-28T06:18:17.123Z,5.37
2019-03-28T06:20:47.381Z,7.47
2019-03-28T06:23:17.734Z,5.40
2019-03-28T06:25:47.963Z,4.53
2019-03-28T06:28:18.606Z,6.03
2019-03-28T06:30:50.830Z,5.77
2019-03-28T06:33:21.039Z,5.43
2019-03-28T06:35:51.247Z,5.53
2019-03-28T06:38:21.545Z,6.03
2019-03-28T06:40:52.115Z,4.10
2019-03-28T06:43:24.222Z,5.33
2019-03-28T06:45:56.312Z,2.60
2019-03-28T06:48:28.505Z,7.83
2019-03-28T06:51:00.694Z,9.43
2019-03-28T06:53:32.736Z,8.77
2019-03-28T06:56:05.185Z,3.80
2019-03-28T06:58:37.335Z,8.47
2019-03-28T07:01:09.500Z,5.07
2019-03-28T07:03:41.870Z,3.93
2019-03-28T07:08:54.046Z,3.77
2019-03-28T07:11:26.076Z,7.07
2019-03-28T07:13:58.167Z,3.13
2019-03-28T07:16:30.317Z,2.83
2019-03-28T07:19:18.740Z,3.83
2019-03-28T07:22:07.093Z,2.93
2019-03-28T07:27:18.869Z,2.77
2019-03-28T07:29:51.579Z,5.53
2019-03-28T07:32:23.675Z,3.57
2019-03-28T07:34:55.702Z,4.03
2019-03-28T07:37:44.177Z,3.30
2019-03-28T07:40:33.476Z,6.53
2019-03-28T07:43:03.910Z,2.57
2019-03-28T07:45:34.541Z,5.00
2019-03-28T07:48:05.071Z,4.50
2019-03-28T07:50:35.421Z,5.23
2019-03-28T07:53:06.054Z,6.57
2019-03-28T07:55:36.263Z,3.13
2019-03-28T07:58:07.703Z,4.73
2019-03-28T08:00:38.410Z,3.53
2019-03-28T08:03:08.965Z,3.20
2019-03-28T08:05:39.274Z,5.20
2019-03-28T08:08:09.573Z,3.97
2019-03-28T08:10:39.837Z,3.47
2019-03-28T08:13:10.123Z,3.80
2019-03-28T08:15:40.411Z,4.97
2019-03-28T08:18:10.707Z,2.40
2019-03-28T08:20:41.000Z,2.27
2019-03-28T08:23:11.164Z,3.40
2019-03-28T08:25:41.641Z,3.23
2019-03-28T08:28:12.026Z,3.10
2019-03-28T08:30:45.473Z,4.20
2019-03-28T08:33:15.751Z,3.80
2019-03-28T08:35:46.020Z,2.87
2019-03-28T08:38:16.254Z,3.70
2019-03-28T08:40:46.352Z,2.73
2019-03-28T08:43:16.779Z,3.37
2019-03-28T08:45:47.030Z,3.43
2019-03-28T08:48:17.684Z,3.07
2019-03-28T08:50:47.916Z,5.70
2019-03-28T08:53:18.446Z,2.27
2019-03-28T08:55:50.614Z,2.83
2019-03-28T08:58:22.833Z,3.83
2019-03-28T09:00:53.300Z,3.60
2019-03-28T09:03:23.417Z,2.77
2019-03-28T09:05:53.625Z,3.80
2019-03-28T09:08:25.848Z,2.37
2019-03-28T09:10:57.973Z,1.50
2019-03-28T09:13:28.203Z,3.97
2019-03-28T09:16:00.377Z,4.60
2019-03-28T09:18:30.855Z,1.90
2019-03-28T09:21:01.644Z,3.50
2019-03-28T09:23:32.956Z,3.60
2019-03-28T09:26:04.507Z,2.20
2019-03-28T09:28:36.511Z,3.77
2019-03-28T09:31:19.307Z,1.93
2019-03-28T09:33:40.899Z,4.23
2019-03-28T09:36:11.415Z,4.43
2019-03-28T09:38:43.496Z,3.13
2019-03-28T09:41:15.567Z,7.53
2019-03-28T09:43:55.109Z,9.33
2019-03-28T09:46:18.362Z,6.87
2019-03-28T09:48:50.775Z,6.77
2019-03-28T09:51:21.585Z,33.53
2019-03-28T09:53:54.079Z,35.57
2019-03-28T09:56:24.270Z,41.83
2019-03-28T09:58:54.489Z,38.33
2019-03-28T10:01:24.762Z,45.80
2019-03-28T10:03:55.680Z,45.23
2019-03-28T10:06:26.198Z,38.93
2019-03-28T10:08:56.925Z,37.77
2019-03-28T10:11:27.122Z,27.17
2019-03-28T10:13:57.830Z,27.33
2019-03-28T10:16:29.121Z,32.53
2019-03-28T10:19:00.003Z,31.23
2019-03-28T10:21:30.233Z,27.80
2019-03-28T10:24:00.504Z,23.30
2019-03-28T10:26:32.395Z,28.40
2019-03-28T10:29:02.923Z,21.77
2019-03-28T10:31:33.328Z,21.33
2019-03-28T10:34:03.688Z,23.77
2019-03-28T10:36:34.058Z,21.93
2019-03-28T10:39:05.526Z,16.90
2019-03-28T10:41:35.767Z,14.67
2019-03-28T10:44:05.979Z,13.20
2019-03-28T10:46:36.114Z,14.97
2019-03-28T10:49:06.391Z,9.20
2019-03-28T10:51:36.618Z,10.23
2019-03-28T10:54:19.231Z,9.13
2019-03-28T10:56:51.140Z,9.37
2019-03-28T10:59:22.631Z,8.57
2019-03-28T11:01:50.230Z,9.70
2019-03-28T11:04:14.896Z,10.10
2019-03-28T11:06:45.299Z,7.43
2019-03-28T11:09:17.515Z,10.33
2019-03-28T11:11:48.320Z,15.10
2019-03-28T11:14:18.588Z,10.83
2019-03-28T11:16:48.850Z,10.03
2019-03-28T11:19:19.260Z,8.23
2019-03-28T11:21:49.708Z,7.80
2019-03-28T11:24:20.294Z,11.53
2019-03-28T11:26:50.564Z,14.30
2019-03-28T11:29:20.908Z,12.40
2019-03-28T11:31:52.701Z,10.07
2019-03-28T11:34:23.560Z,15.57
2019-03-28T11:36:54.204Z,12.53
2019-03-28T11:39:24.750Z,10.70
2019-03-28T11:41:55.132Z,15.00
2019-03-28T11:44:25.431Z,13.90
2019-03-28T11:46:55.729Z,17.13
2019-03-28T11:49:27.159Z,11.23
2019-03-28T11:51:58.131Z,14.50
2019-03-28T11:54:28.294Z,14.97
2019-03-28T11:56:58.624Z,13.13
2019-03-28T11:59:29.335Z,9.40
2019-03-28T12:02:13.820Z,9.00
2019-03-28T12:04:31.971Z,11.90
2019-03-28T12:07:02.153Z,14.10
2019-03-28T12:09:32.350Z,13.83
2019-03-28T12:12:02.855Z,13.33
2019-03-28T12:14:34.913Z,12.90
2019-03-28T12:17:05.543Z,11.50
2019-03-28T12:19:37.830Z,10.53
2019-03-28T12:22:10.083Z,9.33
2019-03-28T12:24:42.093Z,8.47
2019-03-28T12:27:14.215Z,7.67
2019-03-28T12:29:46.342Z,9.73
2019-03-28T12:32:18.443Z,8.90
2019-03-28T12:34:50.673Z,6.33
2019-03-28T12:37:22.879Z,7.40
2019-03-28T12:39:55.053Z,7.80
2019-03-28T12:45:08.450Z,9.67
2019-03-28T12:47:42.872Z,9.60
2019-03-28T12:50:15.398Z,5.37
2019-03-28T12:52:47.514Z,10.03
2019-03-28T12:55:35.963Z,6.43
2019-03-28T12:58:24.408Z,10.07
2019-03-28T13:00:56.527Z,8.33
2019-03-28T13:06:08.183Z,6.20
2019-03-28T13:08:40.248Z,8.20
2019-03-28T13:11:12.277Z,4.97
2019-03-28T13:13:44.748Z,4.97
2019-03-28T13:16:33.292Z,4.83
2019-03-28T13:19:21.949Z,9.20
2019-03-28T13:21:52.307Z,8.50
2019-03-28T13:24:22.504Z,6.10
2019-03-28T13:27:10.937Z,5.90
2019-03-28T13:29:41.364Z,8.20
2019-03-28T13:32:11.546Z,6.47
2019-03-28T13:34:41.964Z,6.20
2019-03-28T13:37:12.203Z,6.43
2019-03-28T13:39:42.841Z,3.97
2019-03-28T13:42:13.035Z,5.67
2019-03-28T13:44:43.458Z,6.80
2019-03-28T13:47:13.949Z,5.50
2019-03-28T13:49:44.122Z,4.13
2019-03-28T13:52:14.352Z,6.77
2019-03-28T13:54:44.985Z,4.17
2019-03-28T13:57:15.415Z,6.53
2019-03-28T13:59:45.627Z,4.47
2019-03-28T14:02:16.073Z,5.33
2019-03-28T14:04:46.815Z,5.43
2019-03-28T14:07:17.684Z,5.73
2019-03-28T14:09:47.916Z,4.47
2019-03-28T14:12:18.145Z,4.10
2019-03-28T14:14:48.376Z,3.20
2019-03-28T14:17:19.615Z,3.47
2019-03-28T14:19:49.971Z,4.90
2019-03-28T14:22:20.290Z,5.40
2019-03-28T14:24:50.631Z,4.93
2019-03-28T14:27:20.873Z,4.13
2019-03-28T14:29:51.108Z,3.00
2019-03-28T14:32:21.357Z,3.17
2019-03-28T14:34:51.517Z,5.50
2019-03-28T14:37:22.159Z,4.00
2019-03-28T14:39:52.345Z,4.77
2019-03-28T14:42:22.592Z,4.40
2019-03-28T14:44:52.819Z,3.47
2019-03-28T14:47:23.081Z,4.33
2019-03-28T14:49:53.509Z,4.07
2019-03-28T14:52:23.919Z,3.10
2019-03-28T14:54:54.252Z,4.67
2019-03-28T14:57:24.918Z,6.30
2019-03-28T14:59:57.409Z,2.67
2019-03-28T15:02:27.952Z,3.17
2019-03-28T15:04:58.327Z,5.10
2019-03-28T15:07:29.857Z,2.83
2019-03-28T15:10:00.455Z,3.20
2019-03-28T15:12:30.903Z,4.40
2019-03-28T15:15:01.098Z,2.53
2019-03-28T15:17:31.356Z,3.03
2019-03-28T15:20:01.563Z,4.23
2019-03-28T15:22:32.029Z,5.03
2019-03-28T15:25:02.492Z,3.60
2019-03-28T15:27:33.363Z,3.40
2019-03-28T15:30:04.302Z,4.07
2019-03-28T15:32:34.820Z,2.77
2019-03-28T15:35:05.607Z,2.73
2019-03-28T15:37:37.257Z,4.00
2019-03-28T15:40:07.544Z,1.97
2019-03-28T15:42:38.431Z,3.33
2019-03-28T15:45:09.107Z,3.70
2019-03-28T15:47:39.415Z,3.37
2019-03-28T15:50:09.841Z,5.57
2019-03-28T15:52:40.096Z,2.80
2019-03-28T15:55:10.715Z,3.10
2019-03-28T15:57:41.558Z,4.97
2019-03-28T16:00:14.026Z,6.10
2019-03-28T16:02:45.514Z,4.57
2019-03-28T16:05:16.720Z,3.47
2019-03-28T16:07:46.984Z,4.03
2019-03-28T16:10:17.355Z,2.63
2019-03-28T16:12:47.714Z,3.87
2019-03-28T16:15:20.070Z,2.70
2019-03-28T16:17:50.216Z,2.97
2019-03-28T16:20:22.285Z,2.53
2019-03-28T16:22:53.499Z,2.70
2019-03-28T16:25:23.707Z,3.03
2019-03-28T16:27:53.824Z,3.67
2019-03-28T16:30:35.029Z,3.30
2019-03-28T16:33:05.737Z,3.10
2019-03-28T16:35:35.838Z,4.20
2019-03-28T16:38:05.964Z,3.10
2019-03-28T16:40:35.966Z,4.50
2019-03-28T16:43:06.993Z,3.13
2019-03-28T16:45:37.506Z,3.40
2019-03-28T16:48:07.605Z,4.73
2019-03-28T16:50:37.987Z,3.57
2019-03-28T16:53:09.693Z,2.77
2019-03-28T16:55:39.989Z,3.57
2019-03-28T16:58:10.166Z,4.07
2019-03-28T17:03:24.100Z,2.83
2019-03-28T17:05:54.498Z,3.70
2019-03-28T17:08:24.582Z,3.53
2019-03-28T17:10:55.030Z,5.80
2019-03-28T17:13:46.226Z,3.47
2019-03-28T17:16:33.472Z,2.00
2019-03-28T17:19:03.997Z,2.33
2019-03-28T17:21:35.577Z,5.70
2019-03-28T17:24:23.673Z,4.47
2019-03-28T17:26:53.717Z,4.00
2019-03-28T17:29:23.727Z,2.30
2019-03-28T17:31:55.619Z,2.60
2019-03-28T17:34:34.628Z,2.57
2019-03-28T17:36:58.815Z,2.67
2019-03-28T17:39:28.970Z,5.07
2019-03-28T17:41:59.554Z,2.07
2019-03-28T17:44:30.425Z,3.93
2019-03-28T17:47:00.713Z,2.10
2019-03-28T17:49:30.733Z,2.17
2019-03-28T17:52:01.712Z,4.20
2019-03-28T17:54:33.691Z,3.97
2019-03-28T17:57:03.876Z,3.83
2019-03-28T17:59:33.915Z,3.17
2019-03-28T18:02:04.012Z,4.87
2019-03-28T18:04:47.178Z,3.33
2019-03-28T18:07:08.438Z,1.80
2019-03-28T18:09:40.375Z,4.13
2019-03-28T18:12:13.752Z,2.90
2019-03-28T18:14:45.790Z,4.23
2019-03-28T18:17:17.698Z,4.20
2019-03-28T18:19:49.628Z,2.20
2019-03-28T18:22:21.522Z,2.37
2019-03-28T18:24:53.493Z,7.03
2019-03-28T18:30:05.973Z,6.10
2019-03-28T18:32:39.540Z,9.03
2019-03-28T18:35:12.046Z,7.60
2019-03-28T18:37:44.774Z,7.50
2019-03-28T18:40:32.829Z,6.30
2019-03-28T18:43:21.838Z,9.63
2019-03-28T18:48:36.377Z,11.97
2019-03-28T18:51:07.688Z,15.83
2019-03-28T18:53:39.615Z,15.53
2019-03-28T18:56:11.650Z,14.90
2019-03-28T18:59:00.120Z,14.17
2019-03-28T19:01:48.624Z,15.63
2019-03-28T19:04:21.313Z,22.30
2019-03-28T19:09:31.767Z,18.23
2019-03-28T19:12:19.576Z,17.07
2019-03-28T19:14:51.665Z,19.90
2019-03-28T19:17:24.495Z,20.43
2019-03-28T19:23:35.517Z,15.73
2019-03-28T19:26:10.615Z,14.13
2019-03-28T19:31:19.541Z,16.50
2019-03-28T19:34:08.207Z,15.30
2019-03-28T19:36:40.159Z,16.07
2019-03-28T19:39:12.190Z,13.20
2019-03-28T19:42:04.085Z,17.40
2019-03-28T19:44:50.481Z,13.00
2019-03-28T19:47:20.916Z,10.10
2019-03-28T19:49:51.008Z,11.90
2019-03-28T19:52:40.121Z,12.43
2019-03-28T19:55:13.768Z,15.03
2019-03-28T19:57:44.106Z,14.57
2019-03-28T20:00:14.166Z,10.63
2019-03-28T20:02:44.240Z,12.93
2019-03-28T20:05:14.252Z,21.60
2019-03-28T20:07:45.831Z,13.73
2019-03-28T20:10:16.985Z,12.20
2019-03-28T20:12:48.378Z,12.10
2019-03-28T20:15:18.539Z,13.20
2019-03-28T20:17:48.954Z,15.63
2019-03-28T20:20:19.115Z,13.40
2019-03-28T20:22:49.300Z,15.87
2019-03-28T20:25:19.545Z,16.53
2019-03-28T20:27:49.935Z,16.40
2019-03-28T20:30:20.413Z,15.70
2019-03-28T20:32:50.584Z,15.30
2019-03-28T20:35:22.271Z,13.53
2019-03-28T20:37:53.173Z,11.40
2019-03-28T20:40:23.249Z,11.00
2019-03-28T20:42:53.333Z,16.03
2019-03-28T20:45:23.761Z,11.27
2019-03-28T20:47:53.866Z,11.10
2019-03-28T20:50:24.053Z,11.03
2019-03-28T20:52:54.244Z,14.07
2019-03-28T20:55:25.555Z,13.60
2019-03-28T20:57:55.731Z,11.73
2019-03-28T21:00:38.921Z,12.03
2019-03-28T21:03:09.134Z,12.73
2019-03-28T21:05:39.741Z,17.60
2019-03-28T21:08:09.823Z,11.87
2019-03-28T21:10:39.904Z,9.83
2019-03-28T21:13:10.091Z,8.53
2019-03-28T21:15:40.130Z,8.70
2019-03-28T21:18:10.195Z,10.73
2019-03-28T21:20:40.267Z,10.77
2019-03-28T21:23:10.341Z,8.47
2019-03-28T21:25:40.398Z,9.37
2019-03-28T21:28:13.704Z,10.70
2019-03-28T21:30:47.614Z,9.90
2019-03-28T21:33:15.151Z,9.07
2019-03-28T21:35:45.448Z,7.90
2019-03-28T21:38:15.504Z,10.63
2019-03-28T21:40:45.591Z,9.47
2019-03-28T21:43:15.670Z,9.33
2019-03-28T21:45:45.752Z,8.73
2019-03-28T21:48:16.927Z,10.17
2019-03-28T21:50:47.230Z,10.70
2019-03-28T21:53:19.796Z,9.60
2019-03-28T21:55:54.947Z,7.80
2019-03-28T21:58:20.873Z,6.17
2019-03-28T22:00:51.094Z,7.00
2019-03-28T22:03:21.548Z,6.83
2019-03-28T22:05:51.774Z,7.27
2019-03-28T22:08:21.847Z,11.47
2019-03-28T22:10:52.240Z,9.23
2019-03-28T22:13:22.327Z,6.70
2019-03-28T22:15:52.385Z,9.53
2019-03-28T22:18:22.457Z,6.07
2019-03-28T22:20:52.613Z,6.60
2019-03-28T22:23:23.385Z,6.20
2019-03-28T22:25:53.474Z,9.87
2019-03-28T22:28:23.716Z,5.20
2019-03-28T22:30:53.886Z,6.47
2019-03-28T22:33:24.531Z,6.97
2019-03-28T22:35:54.699Z,7.27
2019-03-28T22:38:24.794Z,7.63
2019-03-28T22:40:54.973Z,6.93
2019-03-28T22:43:25.048Z,5.13
2019-03-28T22:45:55.269Z,7.60
2019-03-28T22:48:25.431Z,6.83
2019-03-28T22:50:55.883Z,5.63
2019-03-28T22:53:25.945Z,7.03
2019-03-28T22:55:55.997Z,5.00
2019-03-28T22:58:26.335Z,5.73
2019-03-28T23:00:57.126Z,6.87
2019-03-28T23:03:27.596Z,6.83
2019-03-28T23:05:57.650Z,6.60
2019-03-28T23:08:27.708Z,6.73
2019-03-28T23:10:57.786Z,8.00
2019-03-28T23:13:27.856Z,7.67
2019-03-28T23:15:57.930Z,9.93
2019-03-28T23:18:27.995Z,8.90
2019-03-28T23:20:58.070Z,6.33
2019-03-28T23:23:28.178Z,5.70
2019-03-28T23:25:58.518Z,7.87
2019-03-28T23:28:28.615Z,6.77
2019-03-28T23:30:58.694Z,8.00
2019-03-28T23:33:29.028Z,5.57
2019-03-28T23:35:59.087Z,4.50
2019-03-28T23:38:29.142Z,5.60
2019-03-28T23:40:59.295Z,7.17
2019-03-28T23:43:29.353Z,6.43
2019-03-28T23:45:59.402Z,4.53
2019-03-28T23:48:29.481Z,5.33
2019-03-28T23:51:00.428Z,7.23
2019-03-28T23:53:30.507Z,4.37
2019-03-28T23:56:00.940Z,6.23
2019-03-28T23:58:31.071Z,5.90
